sensor_id;sensor_type;location;lat;lon;timestamp;temperature;humidity
42031;DHT22;27709;52.036;5.906;2024-01-30T00:01:00;10.10;99.90
42031;DHT22;27709;52.036;5.906;2024-01-30T00:03:26;10.00;99.90
42031;DHT22;27709;52.036;5.906;2024-01-30T00:05:52;10.00;99.90
42031;DHT22;27709;52.036;5.906;2024-01-30T00:08:17;10.00;99.90
42031;DHT22;27709;52.036;5.906;2024-01-30T00:10:43;10.00;99.90
42031;DHT22;27709;52.036;5.906;2024-01-30T00:13:08;10.00;99.90
42031;DHT22;27709;52.036;5.906;2024-01-30T00:15:34;10.00;99.90
42031;DHT22;27709;52.036;5.906;2024-01-30T00:18:00;9.90;99.90
42031;DHT22;27709;52.036;5.906;2024-01-30T00:20:26;10.00;99.90
42031;DHT22;27709;52.036;5.906;2024-01-30T00:22:52;9.90;99.90
42031;DHT22;27709;52.036;5.906;2024-01-30T00:25:17;9.90;99.90
42031;DHT22;27709;52.036;5.906;2024-01-30T00:27:43;9.90;99.90
42031;DHT22;27709;52.036;5.906;2024-01-30T00:30:09;9.90;99.90
42031;DHT22;27709;52.036;5.906;2024-01-30T00:32:34;9.90;99.90
42031;DHT22;27709;52.036;5.906;2024-01-30T00:35:00;9.90;99.90
42031;DHT22;27709;52.036;5.906;2024-01-30T00:37:26;9.80;99.90
42031;DHT22;27709;52.036;5.906;2024-01-30T00:39:51;9.80;99.90
42031;DHT22;27709;52.036;5.906;2024-01-30T00:42:17;9.80;99.90
42031;DHT22;27709;52.036;5.906;2024-01-30T00:44:43;9.80;99.90
42031;DHT22;27709;52.036;5.906;2024-01-30T00:47:08;9.70;99.90
42031;DHT22;27709;52.036;5.906;2024-01-30T00:49:34;9.70;99.90
42031;DHT22;27709;52.036;5.906;2024-01-30T00:52:00;9.70;99.90
42031;DHT22;27709;52.036;5.906;2024-01-30T00:54:25;9.70;99.90
42031;DHT22;27709;52.036;5.906;2024-01-30T00:56:51;9.70;99.90
42031;DHT22;27709;52.036;5.906;2024-01-30T00:59:17;9.70;99.90
42031;DHT22;27709;52.036;5.906;2024-01-30T01:01:42;9.60;99.90
42031;DHT22;27709;52.036;5.906;2024-01-30T01:04:08;9.60;99.90
42031;DHT22;27709;52.036;5.906;2024-01-30T01:06:33;9.60;99.90
42031;DHT22;27709;52.036;5.906;2024-01-30T01:08:59;9.60;99.90
42031;DHT22;27709;52.036;5.906;2024-01-30T01:11:24;9.60;99.90
42031;DHT22;27709;52.036;5.906;2024-01-30T01:13:50;9.60;99.90
42031;DHT22;27709;52.036;5.906;2024-01-30T01:16:15;9.60;99.90
42031;DHT22;27709;52.036;5.906;2024-01-30T01:18:41;9.50;99.90
42031;DHT22;27709;52.036;5.906;2024-01-30T01:21:07;9.50;99.90
42031;DHT22;27709;52.036;5.906;2024-01-30T01:23:32;9.50;99.90
42031;DHT22;27709;52.036;5.906;2024-01-30T01:25:58;9.50;99.90
42031;DHT22;27709;52.036;5.906;2024-01-30T01:28:25;9.50;99.90
42031;DHT22;27709;52.036;5.906;2024-01-30T01:30:50;9.50;99.90
42031;DHT22;27709;52.036;5.906;2024-01-30T01:33:16;9.50;99.90
42031;DHT22;27709;52.036;5.906;2024-01-30T01:35:42;9.50;99.90
42031;DHT22;27709;52.036;5.906;2024-01-30T01:38:08;9.50;99.90
42031;DHT22;27709;52.036;5.906;2024-01-30T01:40:34;9.50;99.90
42031;DHT22;27709;52.036;5.906;2024-01-30T01:43:03;9.50;99.90
42031;DHT22;27709;52.036;5.906;2024-01-30T01:45:29;9.50;99.90
42031;DHT22;27709;52.036;5.906;2024-01-30T01:47:54;9.40;99.90
42031;DHT22;27709;52.036;5.906;2024-01-30T01:50:21;9.40;99.90
42031;DHT22;27709;52.036;5.906;2024-01-30T01:52:50;9.50;99.90
42031;DHT22;27709;52.036;5.906;2024-01-30T01:55:17;9.40;99.90
42031;DHT22;27709;52.036;5.906;2024-01-30T01:57:47;9.50;99.90
42031;DHT22;27709;52.036;5.906;2024-01-30T02:00:13;9.40;99.90
42031;DHT22;27709;52.036;5.906;2024-01-30T02:02:39;9.40;99.90
42031;DHT22;27709;52.036;5.906;2024-01-30T02:05:05;9.40;99.90
42031;DHT22;27709;52.036;5.906;2024-01-30T02:07:31;9.40;99.90
42031;DHT22;27709;52.036;5.906;2024-01-30T02:09:57;9.40;99.90
42031;DHT22;27709;52.036;5.906;2024-01-30T02:12:22;9.40;99.90
42031;DHT22;27709;52.036;5.906;2024-01-30T02:14:48;9.50;99.90
42031;DHT22;27709;52.036;5.906;2024-01-30T02:17:15;9.50;99.90
42031;DHT22;27709;52.036;5.906;2024-01-30T02:19:41;9.50;99.90
42031;DHT22;27709;52.036;5.906;2024-01-30T02:22:07;9.50;99.90
42031;DHT22;27709;52.036;5.906;2024-01-30T02:24:32;9.50;99.90
42031;DHT22;27709;52.036;5.906;2024-01-30T02:26:58;9.40;99.90
42031;DHT22;27709;52.036;5.906;2024-01-30T02:29:24;9.30;99.90
42031;DHT22;27709;52.036;5.906;2024-01-30T02:31:49;9.30;99.90
42031;DHT22;27709;52.036;5.906;2024-01-30T02:34:15;9.20;99.90
42031;DHT22;27709;52.036;5.906;2024-01-30T02:36:45;9.10;99.90
42031;DHT22;27709;52.036;5.906;2024-01-30T02:39:10;9.10;99.90
42031;DHT22;27709;52.036;5.906;2024-01-30T02:41:36;9.10;99.90
42031;DHT22;27709;52.036;5.906;2024-01-30T02:44:02;9.00;99.90
42031;DHT22;27709;52.036;5.906;2024-01-30T02:46:28;9.00;99.90
42031;DHT22;27709;52.036;5.906;2024-01-30T02:48:54;8.90;99.90
42031;DHT22;27709;52.036;5.906;2024-01-30T02:51:20;8.90;99.90
42031;DHT22;27709;52.036;5.906;2024-01-30T02:53:45;8.90;99.90
42031;DHT22;27709;52.036;5.906;2024-01-30T02:56:11;8.90;99.90
42031;DHT22;27709;52.036;5.906;2024-01-30T02:58:37;8.90;99.90
42031;DHT22;27709;52.036;5.906;2024-01-30T03:01:03;8.90;99.90
42031;DHT22;27709;52.036;5.906;2024-01-30T03:03:29;8.80;99.90
42031;DHT22;27709;52.036;5.906;2024-01-30T03:05:54;8.90;99.90
42031;DHT22;27709;52.036;5.906;2024-01-30T03:08:20;8.80;99.90
42031;DHT22;27709;52.036;5.906;2024-01-30T03:10:46;8.90;99.90
42031;DHT22;27709;52.036;5.906;2024-01-30T03:13:12;8.80;99.90
42031;DHT22;27709;52.036;5.906;2024-01-30T03:15:37;8.80;99.90
42031;DHT22;27709;52.036;5.906;2024-01-30T03:18:03;8.90;99.90
42031;DHT22;27709;52.036;5.906;2024-01-30T03:20:29;8.90;99.90
42031;DHT22;27709;52.036;5.906;2024-01-30T03:22:55;8.80;99.90
42031;DHT22;27709;52.036;5.906;2024-01-30T03:25:21;8.90;99.90
42031;DHT22;27709;52.036;5.906;2024-01-30T03:27:46;8.90;99.90
42031;DHT22;27709;52.036;5.906;2024-01-30T03:30:12;8.90;99.90
42031;DHT22;27709;52.036;5.906;2024-01-30T03:32:38;8.80;99.90
42031;DHT22;27709;52.036;5.906;2024-01-30T03:35:03;8.80;99.90
42031;DHT22;27709;52.036;5.906;2024-01-30T03:37:29;8.80;99.90
42031;DHT22;27709;52.036;5.906;2024-01-30T03:39:55;8.80;99.90
42031;DHT22;27709;52.036;5.906;2024-01-30T03:42:20;8.80;99.90
42031;DHT22;27709;52.036;5.906;2024-01-30T03:44:47;8.80;99.90
42031;DHT22;27709;52.036;5.906;2024-01-30T03:47:13;8.80;99.90
42031;DHT22;27709;52.036;5.906;2024-01-30T03:49:39;8.80;99.90
42031;DHT22;27709;52.036;5.906;2024-01-30T03:52:05;8.80;99.90
42031;DHT22;27709;52.036;5.906;2024-01-30T03:54:30;8.80;99.90
42031;DHT22;27709;52.036;5.906;2024-01-30T03:56:56;8.80;99.90
42031;DHT22;27709;52.036;5.906;2024-01-30T03:59:22;8.80;99.90
42031;DHT22;27709;52.036;5.906;2024-01-30T04:01:50;8.80;99.90
42031;DHT22;27709;52.036;5.906;2024-01-30T04:04:17;8.90;99.90
42031;DHT22;27709;52.036;5.906;2024-01-30T04:06:44;8.80;99.90
42031;DHT22;27709;52.036;5.906;2024-01-30T04:09:09;8.80;99.90
42031;DHT22;27709;52.036;5.906;2024-01-30T04:11:36;8.80;99.90
42031;DHT22;27709;52.036;5.906;2024-01-30T04:14:02;8.80;99.90
42031;DHT22;27709;52.036;5.906;2024-01-30T04:16:27;8.80;99.90
42031;DHT22;27709;52.036;5.906;2024-01-30T04:18:53;8.90;99.90
42031;DHT22;27709;52.036;5.906;2024-01-30T04:21:20;8.90;99.90
42031;DHT22;27709;52.036;5.906;2024-01-30T04:23:46;8.90;99.90
42031;DHT22;27709;52.036;5.906;2024-01-30T04:26:12;8.90;99.90
42031;DHT22;27709;52.036;5.906;2024-01-30T04:28:37;9.00;99.90
42031;DHT22;27709;52.036;5.906;2024-01-30T04:31:03;9.00;99.90
42031;DHT22;27709;52.036;5.906;2024-01-30T04:33:29;9.00;99.90
42031;DHT22;27709;52.036;5.906;2024-01-30T04:35:54;9.10;99.90
42031;DHT22;27709;52.036;5.906;2024-01-30T04:38:20;9.10;99.90
42031;DHT22;27709;52.036;5.906;2024-01-30T04:40:45;9.10;99.90
42031;DHT22;27709;52.036;5.906;2024-01-30T04:43:11;9.10;99.90
42031;DHT22;27709;52.036;5.906;2024-01-30T04:45:36;9.20;99.90
42031;DHT22;27709;52.036;5.906;2024-01-30T04:48:02;9.20;99.90
42031;DHT22;27709;52.036;5.906;2024-01-30T04:50:28;9.20;99.90
42031;DHT22;27709;52.036;5.906;2024-01-30T04:52:54;9.30;99.90
42031;DHT22;27709;52.036;5.906;2024-01-30T04:55:19;9.30;99.90
42031;DHT22;27709;52.036;5.906;2024-01-30T04:57:45;9.30;99.90
42031;DHT22;27709;52.036;5.906;2024-01-30T05:00:11;9.40;99.90
42031;DHT22;27709;52.036;5.906;2024-01-30T05:02:36;9.50;99.90
42031;DHT22;27709;52.036;5.906;2024-01-30T05:05:02;9.50;99.90
42031;DHT22;27709;52.036;5.906;2024-01-30T05:07:28;9.50;99.90
42031;DHT22;27709;52.036;5.906;2024-01-30T05:09:54;9.60;99.90
42031;DHT22;27709;52.036;5.906;2024-01-30T05:12:19;9.60;99.90
42031;DHT22;27709;52.036;5.906;2024-01-30T05:14:46;9.60;99.90
42031;DHT22;27709;52.036;5.906;2024-01-30T05:17:11;9.70;99.90
42031;DHT22;27709;52.036;5.906;2024-01-30T05:19:38;9.70;99.90
42031;DHT22;27709;52.036;5.906;2024-01-30T05:22:04;9.70;99.90
42031;DHT22;27709;52.036;5.906;2024-01-30T05:24:29;9.80;99.90
42031;DHT22;27709;52.036;5.906;2024-01-30T05:26:55;9.80;99.90
42031;DHT22;27709;52.036;5.906;2024-01-30T05:29:20;9.80;99.90
42031;DHT22;27709;52.036;5.906;2024-01-30T05:31:46;9.80;99.90
42031;DHT22;27709;52.036;5.906;2024-01-30T05:34:11;9.80;99.90
42031;DHT22;27709;52.036;5.906;2024-01-30T05:36:37;9.90;99.90
42031;DHT22;27709;52.036;5.906;2024-01-30T05:39:05;9.90;99.90
42031;DHT22;27709;52.036;5.906;2024-01-30T05:41:32;10.00;99.90
42031;DHT22;27709;52.036;5.906;2024-01-30T05:43:58;10.00;99.90
42031;DHT22;27709;52.036;5.906;2024-01-30T05:46:24;10.00;99.90
42031;DHT22;27709;52.036;5.906;2024-01-30T05:48:49;10.00;99.90
42031;DHT22;27709;52.036;5.906;2024-01-30T05:51:15;10.00;99.90
42031;DHT22;27709;52.036;5.906;2024-01-30T05:53:41;10.00;99.90
42031;DHT22;27709;52.036;5.906;2024-01-30T05:56:07;10.00;99.90
42031;DHT22;27709;52.036;5.906;2024-01-30T05:58:33;10.00;99.90
42031;DHT22;27709;52.036;5.906;2024-01-30T06:00:58;10.10;99.90
42031;DHT22;27709;52.036;5.906;2024-01-30T06:03:24;10.10;99.90
42031;DHT22;27709;52.036;5.906;2024-01-30T06:05:50;10.10;99.90
42031;DHT22;27709;52.036;5.906;2024-01-30T06:08:15;10.10;99.90
42031;DHT22;27709;52.036;5.906;2024-01-30T06:10:41;10.20;99.90
42031;DHT22;27709;52.036;5.906;2024-01-30T06:13:06;10.20;99.90
42031;DHT22;27709;52.036;5.906;2024-01-30T06:15:32;10.20;99.90
42031;DHT22;27709;52.036;5.906;2024-01-30T06:17:58;10.20;99.90
42031;DHT22;27709;52.036;5.906;2024-01-30T06:20:24;10.20;99.90
42031;DHT22;27709;52.036;5.906;2024-01-30T06:22:49;10.20;99.90
42031;DHT22;27709;52.036;5.906;2024-01-30T06:25:15;10.30;99.90
42031;DHT22;27709;52.036;5.906;2024-01-30T06:27:42;10.30;99.90
42031;DHT22;27709;52.036;5.906;2024-01-30T06:30:08;10.30;99.90
42031;DHT22;27709;52.036;5.906;2024-01-30T06:32:35;10.30;99.90
42031;DHT22;27709;52.036;5.906;2024-01-30T06:35:01;10.30;99.90
42031;DHT22;27709;52.036;5.906;2024-01-30T06:37:27;10.30;99.90
42031;DHT22;27709;52.036;5.906;2024-01-30T06:39:52;10.30;99.90
42031;DHT22;27709;52.036;5.906;2024-01-30T06:42:18;10.30;99.90
42031;DHT22;27709;52.036;5.906;2024-01-30T06:44:44;10.40;99.90
42031;DHT22;27709;52.036;5.906;2024-01-30T06:47:10;10.40;99.90
42031;DHT22;27709;52.036;5.906;2024-01-30T06:49:36;10.40;99.90
42031;DHT22;27709;52.036;5.906;2024-01-30T06:52:05;10.40;99.90
42031;DHT22;27709;52.036;5.906;2024-01-30T06:54:31;10.40;99.90
42031;DHT22;27709;52.036;5.906;2024-01-30T06:56:58;10.40;99.90
42031;DHT22;27709;52.036;5.906;2024-01-30T06:59:24;10.40;99.90
42031;DHT22;27709;52.036;5.906;2024-01-30T07:01:49;10.50;99.90
42031;DHT22;27709;52.036;5.906;2024-01-30T07:04:15;10.50;99.90
42031;DHT22;27709;52.036;5.906;2024-01-30T07:06:41;10.50;99.90
42031;DHT22;27709;52.036;5.906;2024-01-30T07:09:08;10.50;99.90
42031;DHT22;27709;52.036;5.906;2024-01-30T07:11:34;10.50;99.90
42031;DHT22;27709;52.036;5.906;2024-01-30T07:13:59;10.50;99.90
42031;DHT22;27709;52.036;5.906;2024-01-30T07:16:25;10.60;99.90
42031;DHT22;27709;52.036;5.906;2024-01-30T07:18:51;10.60;99.90
42031;DHT22;27709;52.036;5.906;2024-01-30T07:21:16;10.60;99.90
42031;DHT22;27709;52.036;5.906;2024-01-30T07:23:42;10.60;99.90
42031;DHT22;27709;52.036;5.906;2024-01-30T07:26:08;10.60;99.90
42031;DHT22;27709;52.036;5.906;2024-01-30T07:28:35;10.60;99.90
42031;DHT22;27709;52.036;5.906;2024-01-30T07:31:01;10.70;99.90
42031;DHT22;27709;52.036;5.906;2024-01-30T07:33:27;10.70;99.90
42031;DHT22;27709;52.036;5.906;2024-01-30T07:35:53;10.70;99.90
42031;DHT22;27709;52.036;5.906;2024-01-30T07:38:19;10.70;99.90
42031;DHT22;27709;52.036;5.906;2024-01-30T07:40:45;10.70;99.90
42031;DHT22;27709;52.036;5.906;2024-01-30T07:43:11;10.80;99.90
42031;DHT22;27709;52.036;5.906;2024-01-30T07:45:37;10.80;99.90
42031;DHT22;27709;52.036;5.906;2024-01-30T07:48:05;10.80;99.90
42031;DHT22;27709;52.036;5.906;2024-01-30T07:50:31;10.80;99.90
42031;DHT22;27709;52.036;5.906;2024-01-30T07:53:00;10.80;99.90
42031;DHT22;27709;52.036;5.906;2024-01-30T07:55:26;10.80;99.90
42031;DHT22;27709;52.036;5.906;2024-01-30T07:57:54;10.90;99.90
42031;DHT22;27709;52.036;5.906;2024-01-30T08:00:21;10.90;99.90
42031;DHT22;27709;52.036;5.906;2024-01-30T08:02:52;10.90;99.90
42031;DHT22;27709;52.036;5.906;2024-01-30T08:05:21;11.00;99.90
42031;DHT22;27709;52.036;5.906;2024-01-30T08:07:50;11.00;99.90
42031;DHT22;27709;52.036;5.906;2024-01-30T08:10:16;10.90;99.90
42031;DHT22;27709;52.036;5.906;2024-01-30T08:12:44;11.00;99.90
42031;DHT22;27709;52.036;5.906;2024-01-30T08:15:11;11.00;99.90
42031;DHT22;27709;52.036;5.906;2024-01-30T08:17:43;11.00;99.90
42031;DHT22;27709;52.036;5.906;2024-01-30T08:20:10;11.00;99.90
42031;DHT22;27709;52.036;5.906;2024-01-30T08:22:38;11.10;99.90
42031;DHT22;27709;52.036;5.906;2024-01-30T08:25:05;11.10;99.90
42031;DHT22;27709;52.036;5.906;2024-01-30T08:27:32;11.20;99.90
42031;DHT22;27709;52.036;5.906;2024-01-30T08:29:58;11.20;99.90
42031;DHT22;27709;52.036;5.906;2024-01-30T08:32:24;11.30;99.90
42031;DHT22;27709;52.036;5.906;2024-01-30T08:34:51;11.30;99.90
42031;DHT22;27709;52.036;5.906;2024-01-30T08:37:17;11.40;99.90
42031;DHT22;27709;52.036;5.906;2024-01-30T08:39:43;11.40;99.90
42031;DHT22;27709;52.036;5.906;2024-01-30T08:42:09;11.50;99.90
42031;DHT22;27709;52.036;5.906;2024-01-30T08:44:35;11.60;99.90
42031;DHT22;27709;52.036;5.906;2024-01-30T08:47:01;11.50;99.90
42031;DHT22;27709;52.036;5.906;2024-01-30T08:49:26;11.60;99.90
42031;DHT22;27709;52.036;5.906;2024-01-30T08:51:52;11.60;99.90
42031;DHT22;27709;52.036;5.906;2024-01-30T08:54:19;11.70;99.90
42031;DHT22;27709;52.036;5.906;2024-01-30T08:56:44;11.70;99.90
42031;DHT22;27709;52.036;5.906;2024-01-30T08:59:10;11.70;99.90
42031;DHT22;27709;52.036;5.906;2024-01-30T09:01:36;11.80;99.90
42031;DHT22;27709;52.036;5.906;2024-01-30T09:04:02;11.80;99.90
42031;DHT22;27709;52.036;5.906;2024-01-30T09:06:27;11.80;99.90
42031;DHT22;27709;52.036;5.906;2024-01-30T09:08:54;11.80;99.90
42031;DHT22;27709;52.036;5.906;2024-01-30T09:11:20;11.80;99.90
42031;DHT22;27709;52.036;5.906;2024-01-30T09:13:45;11.90;99.90
42031;DHT22;27709;52.036;5.906;2024-01-30T09:16:11;11.90;99.90
42031;DHT22;27709;52.036;5.906;2024-01-30T09:18:36;11.90;99.90
42031;DHT22;27709;52.036;5.906;2024-01-30T09:21:02;11.90;99.90
42031;DHT22;27709;52.036;5.906;2024-01-30T09:23:28;11.90;99.90
42031;DHT22;27709;52.036;5.906;2024-01-30T09:25:55;11.90;99.90
42031;DHT22;27709;52.036;5.906;2024-01-30T09:28:21;12.00;99.90
42031;DHT22;27709;52.036;5.906;2024-01-30T09:30:46;12.00;99.90
42031;DHT22;27709;52.036;5.906;2024-01-30T09:33:12;12.00;99.90
42031;DHT22;27709;52.036;5.906;2024-01-30T09:35:37;12.10;99.90
42031;DHT22;27709;52.036;5.906;2024-01-30T09:38:03;12.20;99.90
42031;DHT22;27709;52.036;5.906;2024-01-30T09:40:29;12.20;99.90
42031;DHT22;27709;52.036;5.906;2024-01-30T09:42:55;12.20;99.90
42031;DHT22;27709;52.036;5.906;2024-01-30T09:45:24;12.30;99.90
42031;DHT22;27709;52.036;5.906;2024-01-30T09:47:50;12.30;99.90
42031;DHT22;27709;52.036;5.906;2024-01-30T09:50:16;12.20;99.90
42031;DHT22;27709;52.036;5.906;2024-01-30T09:52:46;12.20;99.90
42031;DHT22;27709;52.036;5.906;2024-01-30T09:55:13;12.20;99.90
42031;DHT22;27709;52.036;5.906;2024-01-30T09:57:39;12.30;99.90
42031;DHT22;27709;52.036;5.906;2024-01-30T10:00:06;12.30;99.90
42031;DHT22;27709;52.036;5.906;2024-01-30T10:02:35;12.30;99.90
42031;DHT22;27709;52.036;5.906;2024-01-30T10:05:01;12.40;99.90
42031;DHT22;27709;52.036;5.906;2024-01-30T10:07:27;12.30;99.90
42031;DHT22;27709;52.036;5.906;2024-01-30T10:09:53;12.30;99.90
42031;DHT22;27709;52.036;5.906;2024-01-30T10:12:20;12.40;99.90
42031;DHT22;27709;52.036;5.906;2024-01-30T10:14:46;12.40;99.90
42031;DHT22;27709;52.036;5.906;2024-01-30T10:17:12;12.40;99.90
42031;DHT22;27709;52.036;5.906;2024-01-30T10:19:41;12.50;99.90
42031;DHT22;27709;52.036;5.906;2024-01-30T10:22:08;12.50;99.90
42031;DHT22;27709;52.036;5.906;2024-01-30T10:24:34;12.50;99.90
42031;DHT22;27709;52.036;5.906;2024-01-30T10:27:00;12.50;99.90
42031;DHT22;27709;52.036;5.906;2024-01-30T10:29:27;12.60;99.90
42031;DHT22;27709;52.036;5.906;2024-01-30T10:34:25;12.60;99.90
42031;DHT22;27709;52.036;5.906;2024-01-30T10:37:10;12.60;99.90
42031;DHT22;27709;52.036;5.906;2024-01-30T10:39:45;12.60;99.90
42031;DHT22;27709;52.036;5.906;2024-01-30T10:42:17;12.60;99.90
42031;DHT22;27709;52.036;5.906;2024-01-30T10:45:12;12.60;99.90
42031;DHT22;27709;52.036;5.906;2024-01-30T10:47:40;12.70;99.90
42031;DHT22;27709;52.036;5.906;2024-01-30T10:50:08;12.60;99.90
42031;DHT22;27709;52.036;5.906;2024-01-30T10:52:34;12.60;99.90
42031;DHT22;27709;52.036;5.906;2024-01-30T10:55:00;12.70;99.90
42031;DHT22;27709;52.036;5.906;2024-01-30T10:57:26;12.80;99.90
42031;DHT22;27709;52.036;5.906;2024-01-30T10:59:57;12.80;99.90
42031;DHT22;27709;52.036;5.906;2024-01-30T11:02:24;12.90;99.90
42031;DHT22;27709;52.036;5.906;2024-01-30T11:04:55;12.90;99.90
42031;DHT22;27709;52.036;5.906;2024-01-30T11:07:29;13.00;99.90
42031;DHT22;27709;52.036;5.906;2024-01-30T11:12:24;13.10;99.90
42031;DHT22;27709;52.036;5.906;2024-01-30T11:17:29;13.30;99.90
42031;DHT22;27709;52.036;5.906;2024-01-30T11:20:04;13.60;99.90
42031;DHT22;27709;52.036;5.906;2024-01-30T11:22:30;13.70;99.90
42031;DHT22;27709;52.036;5.906;2024-01-30T11:24:56;13.80;99.90
42031;DHT22;27709;52.036;5.906;2024-01-30T11:27:22;13.80;99.90
42031;DHT22;27709;52.036;5.906;2024-01-30T11:29:50;13.80;99.90
42031;DHT22;27709;52.036;5.906;2024-01-30T11:32:22;13.70;99.90
42031;DHT22;27709;52.036;5.906;2024-01-30T11:34:49;13.70;99.90
42031;DHT22;27709;52.036;5.906;2024-01-30T11:37:16;13.70;99.90
42031;DHT22;27709;52.036;5.906;2024-01-30T11:39:46;13.60;99.90
42031;DHT22;27709;52.036;5.906;2024-01-30T11:42:12;13.60;99.90
42031;DHT22;27709;52.036;5.906;2024-01-30T11:44:38;13.60;99.90
42031;DHT22;27709;52.036;5.906;2024-01-30T11:47:04;13.50;99.90
42031;DHT22;27709;52.036;5.906;2024-01-30T11:49:30;13.50;99.90
42031;DHT22;27709;52.036;5.906;2024-01-30T11:51:56;13.50;99.90
42031;DHT22;27709;52.036;5.906;2024-01-30T11:54:23;13.60;99.90
42031;DHT22;27709;52.036;5.906;2024-01-30T11:56:48;13.70;99.90
42031;DHT22;27709;52.036;5.906;2024-01-30T11:59:14;13.70;99.90
42031;DHT22;27709;52.036;5.906;2024-01-30T12:01:39;13.80;99.90
42031;DHT22;27709;52.036;5.906;2024-01-30T12:04:05;13.90;99.90
42031;DHT22;27709;52.036;5.906;2024-01-30T12:06:34;14.00;99.90
42031;DHT22;27709;52.036;5.906;2024-01-30T12:09:03;14.00;99.90
42031;DHT22;27709;52.036;5.906;2024-01-30T12:11:47;14.10;99.90
42031;DHT22;27709;52.036;5.906;2024-01-30T12:14:14;14.30;99.90
42031;DHT22;27709;52.036;5.906;2024-01-30T12:16:41;14.40;99.80
42031;DHT22;27709;52.036;5.906;2024-01-30T12:19:07;14.40;99.40
42031;DHT22;27709;52.036;5.906;2024-01-30T12:21:34;14.50;98.80
42031;DHT22;27709;52.036;5.906;2024-01-30T12:24:00;14.50;99.00
42031;DHT22;27709;52.036;5.906;2024-01-30T12:26:26;14.50;98.70
42031;DHT22;27709;52.036;5.906;2024-01-30T12:28:54;14.50;98.50
42031;DHT22;27709;52.036;5.906;2024-01-30T12:31:28;14.40;98.60
42031;DHT22;27709;52.036;5.906;2024-01-30T12:33:54;14.30;98.30
42031;DHT22;27709;52.036;5.906;2024-01-30T12:36:21;14.00;98.40
42031;DHT22;27709;52.036;5.906;2024-01-30T12:38:47;13.90;98.50
42031;DHT22;27709;52.036;5.906;2024-01-30T12:41:12;13.70;98.60
42031;DHT22;27709;52.036;5.906;2024-01-30T12:43:38;13.60;98.70
42031;DHT22;27709;52.036;5.906;2024-01-30T12:46:04;13.60;98.90
42031;DHT22;27709;52.036;5.906;2024-01-30T12:48:35;13.50;99.00
42031;DHT22;27709;52.036;5.906;2024-01-30T12:51:00;13.40;98.90
42031;DHT22;27709;52.036;5.906;2024-01-30T12:53:26;13.30;99.00
42031;DHT22;27709;52.036;5.906;2024-01-30T12:55:52;13.30;99.00
42031;DHT22;27709;52.036;5.906;2024-01-30T12:58:19;13.20;98.90
42031;DHT22;27709;52.036;5.906;2024-01-30T13:00:45;13.20;98.80
42031;DHT22;27709;52.036;5.906;2024-01-30T13:03:11;13.30;98.40
42031;DHT22;27709;52.036;5.906;2024-01-30T13:05:39;13.30;98.40
42031;DHT22;27709;52.036;5.906;2024-01-30T13:08:06;13.40;98.40
42031;DHT22;27709;52.036;5.906;2024-01-30T13:10:35;13.30;98.20
42031;DHT22;27709;52.036;5.906;2024-01-30T13:13:00;13.30;98.10
42031;DHT22;27709;52.036;5.906;2024-01-30T13:15:26;13.30;98.20
42031;DHT22;27709;52.036;5.906;2024-01-30T13:17:51;13.40;98.30
42031;DHT22;27709;52.036;5.906;2024-01-30T13:20:22;13.40;98.00
42031;DHT22;27709;52.036;5.906;2024-01-30T13:22:48;13.40;97.70
42031;DHT22;27709;52.036;5.906;2024-01-30T13:25:17;13.40;97.60
42031;DHT22;27709;52.036;5.906;2024-01-30T13:27:44;13.30;97.60
42031;DHT22;27709;52.036;5.906;2024-01-30T13:30:11;13.20;97.50
42031;DHT22;27709;52.036;5.906;2024-01-30T13:32:37;13.20;97.70
42031;DHT22;27709;52.036;5.906;2024-01-30T13:35:03;13.20;97.70
42031;DHT22;27709;52.036;5.906;2024-01-30T13:37:29;13.10;97.80
42031;DHT22;27709;52.036;5.906;2024-01-30T13:39:55;13.00;97.70
42031;DHT22;27709;52.036;5.906;2024-01-30T13:42:21;12.90;97.80
42031;DHT22;27709;52.036;5.906;2024-01-30T13:44:47;12.80;98.20
42031;DHT22;27709;52.036;5.906;2024-01-30T13:47:12;12.70;98.50
42031;DHT22;27709;52.036;5.906;2024-01-30T13:49:38;12.70;98.60
42031;DHT22;27709;52.036;5.906;2024-01-30T13:52:04;12.60;98.80
42031;DHT22;27709;52.036;5.906;2024-01-30T13:54:30;12.50;98.80
42031;DHT22;27709;52.036;5.906;2024-01-30T13:56:56;12.40;99.00
42031;DHT22;27709;52.036;5.906;2024-01-30T13:59:22;12.30;99.20
42031;DHT22;27709;52.036;5.906;2024-01-30T14:01:50;12.20;99.30
42031;DHT22;27709;52.036;5.906;2024-01-30T14:04:15;12.20;99.30
42031;DHT22;27709;52.036;5.906;2024-01-30T14:06:41;12.20;99.40
42031;DHT22;27709;52.036;5.906;2024-01-30T14:09:07;12.20;99.30
42031;DHT22;27709;52.036;5.906;2024-01-30T14:11:32;12.20;99.20
42031;DHT22;27709;52.036;5.906;2024-01-30T14:13:59;12.10;99.10
42031;DHT22;27709;52.036;5.906;2024-01-30T14:16:26;12.10;99.20
42031;DHT22;27709;52.036;5.906;2024-01-30T14:18:51;12.10;99.20
42031;DHT22;27709;52.036;5.906;2024-01-30T14:21:17;12.10;99.20
42031;DHT22;27709;52.036;5.906;2024-01-30T14:23:47;12.20;99.10
42031;DHT22;27709;52.036;5.906;2024-01-30T14:26:13;12.30;99.10
42031;DHT22;27709;52.036;5.906;2024-01-30T14:28:38;12.30;99.00
42031;DHT22;27709;52.036;5.906;2024-01-30T14:31:04;12.30;99.00
42031;DHT22;27709;52.036;5.906;2024-01-30T14:33:30;12.30;99.00
42031;DHT22;27709;52.036;5.906;2024-01-30T14:35:55;12.30;98.90
42031;DHT22;27709;52.036;5.906;2024-01-30T14:38:21;12.30;98.70
42031;DHT22;27709;52.036;5.906;2024-01-30T14:40:47;12.20;98.80
42031;DHT22;27709;52.036;5.906;2024-01-30T14:43:12;12.20;98.90
42031;DHT22;27709;52.036;5.906;2024-01-30T14:45:40;12.10;99.10
42031;DHT22;27709;52.036;5.906;2024-01-30T14:48:08;12.20;99.10
42031;DHT22;27709;52.036;5.906;2024-01-30T14:50:34;12.10;99.30
42031;DHT22;27709;52.036;5.906;2024-01-30T14:53:00;12.10;99.50
42031;DHT22;27709;52.036;5.906;2024-01-30T14:55:25;12.00;99.70
42031;DHT22;27709;52.036;5.906;2024-01-30T14:57:51;12.00;99.80
42031;DHT22;27709;52.036;5.906;2024-01-30T15:00:17;11.90;99.90
42031;DHT22;27709;52.036;5.906;2024-01-30T15:02:44;11.90;99.90
42031;DHT22;27709;52.036;5.906;2024-01-30T15:05:12;11.80;99.90
42031;DHT22;27709;52.036;5.906;2024-01-30T15:07:39;11.70;99.90
42031;DHT22;27709;52.036;5.906;2024-01-30T15:10:04;11.70;99.90
42031;DHT22;27709;52.036;5.906;2024-01-30T15:12:35;11.70;99.90
42031;DHT22;27709;52.036;5.906;2024-01-30T15:15:01;11.70;99.90
42031;DHT22;27709;52.036;5.906;2024-01-30T15:17:26;11.60;99.90
42031;DHT22;27709;52.036;5.906;2024-01-30T15:19:52;11.60;99.90
42031;DHT22;27709;52.036;5.906;2024-01-30T15:22:18;11.50;99.90
42031;DHT22;27709;52.036;5.906;2024-01-30T15:24:44;11.50;99.90
42031;DHT22;27709;52.036;5.906;2024-01-30T15:27:09;11.40;99.90
42031;DHT22;27709;52.036;5.906;2024-01-30T15:29:35;11.40;99.90
42031;DHT22;27709;52.036;5.906;2024-01-30T15:32:00;11.40;99.90
42031;DHT22;27709;52.036;5.906;2024-01-30T15:34:26;11.40;99.90
42031;DHT22;27709;52.036;5.906;2024-01-30T15:36:52;11.40;99.90